createdAt,value
2023-09-17T00:01:26.896Z,25.46
2023-09-17T00:03:54.551Z,25.45
2023-09-17T00:06:22.002Z,25.46
2023-09-17T00:08:49.258Z,25.46
2023-09-17T00:11:16.653Z,25.49
2023-09-17T00:13:43.909Z,25.49
2023-09-17T00:16:12.196Z,25.46
2023-09-17T00:18:39.811Z,25.46
2023-09-17T00:21:07.637Z,25.45
2023-09-17T00:23:35.315Z,25.42
2023-09-17T00:26:02.620Z,25.41
2023-09-17T00:28:29.687Z,25.38
2023-09-17T00:30:56.889Z,25.36
2023-09-17T00:33:24.551Z,25.36
2023-09-17T00:35:53.811Z,25.35
2023-09-17T00:38:21.232Z,25.31
2023-09-17T00:40:50.581Z,25.30
2023-09-17T00:43:19.325Z,25.30
2023-09-17T00:45:46.917Z,25.27
2023-09-17T00:48:14.346Z,25.29
2023-09-17T00:50:41.999Z,25.28
2023-09-17T00:53:09.919Z,25.26
2023-09-17T00:55:38.608Z,25.23
2023-09-17T00:58:07.343Z,25.21
2023-09-17T01:00:39.407Z,25.17
2023-09-17T01:03:09.657Z,25.14
2023-09-17T01:05:43.445Z,25.13
2023-09-17T01:08:11.315Z,25.09
2023-09-17T01:10:42.555Z,25.10
2023-09-17T01:13:10.614Z,25.06
2023-09-17T01:15:38.867Z,25.04
2023-09-17T01:18:08.707Z,25.06
2023-09-17T01:21:16.288Z,24.99
2023-09-17T01:23:53.294Z,24.98
2023-09-17T01:26:27.871Z,24.97
2023-09-17T01:28:55.467Z,24.98
2023-09-17T01:31:24.793Z,24.97
2023-09-17T01:33:54.648Z,24.95
2023-09-17T01:36:35.191Z,24.93
2023-09-17T01:39:14.661Z,24.94
2023-09-17T01:41:42.717Z,24.92
2023-09-17T01:44:11.263Z,24.88
2023-09-17T01:46:40.438Z,24.84
2023-09-17T01:49:13.369Z,24.76
2023-09-17T01:51:41.088Z,24.70
2023-09-17T01:54:08.473Z,24.61
2023-09-17T01:56:43.151Z,24.55
2023-09-17T01:59:10.566Z,24.51
2023-09-17T02:01:38.210Z,24.51
2023-09-17T02:04:05.579Z,24.50
2023-09-17T02:06:32.770Z,24.53
2023-09-17T02:08:59.946Z,24.53
2023-09-17T02:11:27.290Z,24.53
2023-09-17T02:13:54.503Z,24.56
2023-09-17T02:16:22.330Z,24.57
2023-09-17T02:18:49.637Z,24.59
2023-09-17T02:21:17.045Z,24.56
2023-09-17T02:23:45.614Z,24.58
2023-09-17T02:26:13.367Z,24.56
2023-09-17T02:28:40.467Z,24.51
2023-09-17T02:31:08.112Z,24.47
2023-09-17T02:33:35.274Z,24.48
2023-09-17T02:36:04.410Z,24.49
2023-09-17T02:38:31.478Z,24.49
2023-09-17T02:40:58.597Z,24.46
2023-09-17T02:43:25.835Z,24.47
2023-09-17T02:45:55.259Z,24.47
2023-09-17T02:48:22.498Z,24.47
2023-09-17T02:50:49.848Z,24.43
2023-09-17T02:53:18.232Z,24.45
2023-09-17T02:55:46.770Z,24.40
2023-09-17T02:58:14.336Z,24.39
2023-09-17T03:00:44.414Z,24.35
2023-09-17T03:03:12.256Z,24.30
2023-09-17T03:05:39.435Z,24.30
2023-09-17T03:08:09.986Z,24.32
2023-09-17T03:10:43.587Z,24.33
2023-09-17T03:13:13.905Z,24.32
2023-09-17T03:15:41.545Z,24.30
2023-09-17T03:18:09.025Z,24.28
2023-09-17T03:20:36.856Z,24.27
2023-09-17T03:23:05.643Z,24.28
2023-09-17T03:25:35.538Z,24.30
2023-09-17T03:28:02.904Z,24.30
2023-09-17T03:30:30.316Z,24.33
2023-09-17T03:33:04.790Z,24.32
2023-09-17T03:35:40.818Z,24.32
2023-09-17T03:38:08.608Z,24.33
2023-09-17T03:40:35.906Z,24.33
2023-09-17T03:43:04.643Z,24.32
2023-09-17T03:45:32.331Z,24.29
2023-09-17T03:47:59.904Z,24.28
2023-09-17T03:50:29.214Z,24.29
2023-09-17T03:53:00.144Z,24.29
2023-09-17T03:55:27.521Z,24.29
2023-09-17T03:57:57.536Z,24.32
2023-09-17T04:00:26.514Z,24.32
2023-09-17T04:02:54.318Z,24.32
2023-09-17T04:05:22.790Z,24.29
2023-09-17T04:07:49.999Z,24.29
2023-09-17T04:10:18.675Z,24.26
2023-09-17T04:12:46.724Z,24.22
2023-09-17T04:15:20.383Z,24.20
2023-09-17T04:17:50.954Z,24.19
2023-09-17T04:20:22.446Z,24.19
2023-09-17T04:22:51.795Z,24.18
2023-09-17T04:25:21.646Z,24.20
2023-09-17T04:27:51.088Z,24.18
2023-09-17T04:30:21.098Z,24.17
2023-09-17T04:32:51.240Z,24.13
2023-09-17T04:35:19.841Z,24.11
2023-09-17T04:37:50.267Z,24.08
2023-09-17T04:40:25.968Z,24.10
2023-09-17T04:42:53.695Z,24.07
2023-09-17T04:45:39.878Z,24.05
2023-09-17T04:48:12.958Z,24.03
2023-09-17T04:50:46.412Z,24.01
2023-09-17T04:53:16.113Z,23.94
2023-09-17T04:55:45.722Z,23.95
2023-09-17T04:58:15.360Z,23.92
2023-09-17T05:00:45.372Z,23.91
2023-09-17T05:03:13.208Z,23.89
2023-09-17T05:05:40.702Z,23.86
2023-09-17T05:08:09.029Z,23.86
2023-09-17T05:10:36.558Z,23.87
2023-09-17T05:13:04.155Z,23.87
2023-09-17T05:15:31.482Z,23.86
2023-09-17T05:18:00.008Z,23.86
2023-09-17T05:20:28.250Z,23.89
2023-09-17T05:22:57.392Z,23.92
2023-09-17T05:25:24.762Z,23.95
2023-09-17T05:27:52.051Z,24.00
2023-09-17T05:30:19.137Z,24.02
2023-09-17T05:32:46.536Z,24.05
2023-09-17T05:35:14.443Z,24.08
2023-09-17T05:37:41.685Z,24.11
2023-09-17T05:40:10.341Z,24.13
2023-09-17T05:42:38.873Z,24.19
2023-09-17T05:45:06.700Z,24.22
2023-09-17T05:47:34.304Z,24.25
2023-09-17T05:50:01.741Z,24.28
2023-09-17T05:52:34.393Z,24.32
2023-09-17T05:55:05.275Z,24.37
2023-09-17T05:57:34.649Z,24.40
2023-09-17T06:00:05.058Z,24.45
2023-09-17T06:02:42.163Z,24.45
2023-09-17T06:05:11.723Z,24.49
2023-09-17T06:07:39.028Z,24.51
2023-09-17T06:10:07.095Z,24.52
2023-09-17T06:12:34.171Z,24.54
2023-09-17T06:15:02.685Z,24.58
2023-09-17T06:17:29.884Z,24.60
2023-09-17T06:19:57.033Z,24.62
2023-09-17T06:22:24.909Z,24.65
2023-09-17T06:24:52.601Z,24.67
2023-09-17T06:27:19.818Z,24.68
2023-09-17T06:29:46.879Z,24.68
2023-09-17T06:32:15.225Z,24.71
2023-09-17T06:34:42.820Z,24.71
2023-09-17T06:37:10.402Z,24.73
2023-09-17T06:39:37.820Z,24.76
2023-09-17T06:42:05.815Z,24.80
2023-09-17T06:44:34.006Z,24.82
2023-09-17T06:47:01.135Z,24.82
2023-09-17T06:49:28.887Z,24.84
2023-09-17T06:51:56.877Z,24.87
2023-09-17T06:54:23.932Z,24.88
2023-09-17T06:56:53.018Z,24.89
2023-09-17T06:59:20.038Z,24.90
2023-09-17T07:01:47.646Z,24.93
2023-09-17T07:04:15.017Z,24.93
2023-09-17T07:06:42.323Z,24.96
2023-09-17T07:09:09.420Z,24.99
2023-09-17T07:11:36.508Z,25.00
2023-09-17T07:14:10.288Z,25.01
2023-09-17T07:16:38.668Z,25.02
2023-09-17T07:19:06.464Z,25.04
2023-09-17T07:21:33.732Z,25.05
2023-09-17T07:24:00.763Z,25.07
2023-09-17T07:26:29.237Z,25.06
2023-09-17T07:28:56.452Z,25.06
2023-09-17T07:31:23.931Z,25.09
2023-09-17T07:33:51.343Z,25.10
2023-09-17T07:36:18.795Z,25.10
2023-09-17T07:38:45.851Z,25.12
2023-09-17T07:41:13.067Z,25.13
2023-09-17T07:43:40.289Z,25.12
2023-09-17T07:46:07.602Z,25.12
2023-09-17T07:48:35.744Z,25.13
2023-09-17T07:51:02.849Z,25.13
2023-09-17T07:53:29.865Z,25.13
2023-09-17T07:55:57.648Z,25.17
2023-09-17T07:58:24.923Z,25.18
2023-09-17T08:00:52.015Z,25.20
2023-09-17T08:03:20.055Z,25.21
2023-09-17T08:05:48.633Z,25.20
2023-09-17T08:08:15.845Z,25.23
2023-09-17T08:10:43.539Z,25.24
2023-09-17T08:13:10.696Z,25.24
2023-09-17T08:15:38.991Z,25.27
2023-09-17T08:18:06.548Z,25.26
2023-09-17T08:20:34.027Z,25.26
2023-09-17T08:23:01.217Z,25.28
2023-09-17T08:25:28.438Z,25.27
2023-09-17T08:27:55.563Z,25.28
2023-09-17T08:30:22.610Z,25.29
2023-09-17T08:32:49.915Z,25.30
2023-09-17T08:35:17.232Z,25.31
2023-09-17T08:37:45.310Z,25.32
2023-09-17T08:40:15.854Z,25.32
2023-09-17T08:42:43.930Z,25.35
2023-09-17T08:45:12.724Z,25.37
2023-09-17T08:47:40.707Z,25.36
2023-09-17T08:50:10.491Z,25.40
2023-09-17T08:52:58.260Z,25.39
2023-09-17T08:55:25.693Z,25.40
2023-09-17T08:58:10.335Z,25.42
2023-09-17T09:00:41.186Z,25.45
2023-09-17T09:03:09.574Z,25.47
2023-09-17T09:05:37.584Z,25.48
2023-09-17T09:08:06.249Z,25.51
2023-09-17T09:10:33.552Z,25.53
2023-09-17T09:13:01.305Z,25.55
2023-09-17T09:15:28.674Z,25.56
2023-09-17T09:17:56.597Z,25.59
2023-09-17T09:20:24.180Z,25.60
2023-09-17T09:22:51.519Z,25.63
2023-09-17T09:25:19.889Z,25.65
2023-09-17T09:27:47.247Z,25.66
2023-09-17T09:30:18.043Z,25.67
2023-09-17T09:32:46.759Z,25.69
2023-09-17T09:35:14.267Z,25.70
2023-09-17T09:37:41.429Z,25.75
2023-09-17T09:40:09.668Z,25.75
2023-09-17T09:42:37.248Z,25.77
2023-09-17T09:45:04.959Z,25.78
2023-09-17T09:47:33.166Z,25.81
2023-09-17T09:50:02.165Z,25.83
2023-09-17T09:52:30.260Z,25.85
2023-09-17T09:54:57.536Z,25.89
2023-09-17T09:57:26.771Z,25.89
2023-09-17T09:59:54.535Z,25.94
2023-09-17T10:02:23.326Z,25.97
2023-09-17T10:04:50.782Z,25.98
2023-09-17T10:07:18.930Z,26.00
2023-09-17T10:09:47.215Z,26.01
2023-09-17T10:12:14.623Z,26.07
2023-09-17T10:14:42.516Z,26.07
2023-09-17T10:17:12.321Z,26.08
2023-09-17T10:19:41.636Z,26.11
2023-09-17T10:22:11.374Z,26.12
2023-09-17T10:24:39.860Z,26.16
2023-09-17T10:27:08.057Z,26.17
2023-09-17T10:29:39.783Z,26.19
2023-09-17T10:32:10.523Z,26.21
2023-09-17T10:34:38.290Z,26.25
2023-09-17T10:37:06.276Z,26.27
2023-09-17T10:39:34.575Z,26.28
2023-09-17T10:42:06.159Z,26.32
2023-09-17T10:44:38.058Z,26.34
2023-09-17T10:47:12.414Z,26.36
2023-09-17T10:49:44.026Z,26.39
2023-09-17T10:52:13.418Z,26.42
2023-09-17T10:54:40.723Z,26.43
2023-09-17T10:57:24.077Z,26.45
2023-09-17T10:59:53.614Z,26.47
2023-09-17T11:02:23.346Z,26.49
2023-09-17T11:04:52.186Z,26.51
2023-09-17T11:07:19.984Z,26.51
2023-09-17T11:09:47.863Z,26.58
2023-09-17T11:12:15.092Z,26.59
2023-09-17T11:14:47.272Z,26.61
2023-09-17T11:17:19.431Z,26.64
2023-09-17T11:19:46.679Z,26.66
2023-09-17T11:22:14.363Z,26.69
2023-09-17T11:24:45.478Z,26.70
2023-09-17T11:27:13.537Z,26.74
2023-09-17T11:29:42.669Z,26.76
2023-09-17T11:32:10.304Z,26.77
2023-09-17T11:34:42.383Z,26.80
2023-09-17T11:37:09.577Z,26.82
2023-09-17T11:39:38.009Z,26.84
2023-09-17T11:42:14.227Z,26.86
2023-09-17T11:44:43.779Z,26.89
2023-09-17T11:47:13.892Z,26.92
2023-09-17T11:49:41.916Z,26.92
2023-09-17T11:52:13.222Z,26.94
2023-09-17T11:54:52.699Z,26.98
2023-09-17T11:57:27.862Z,26.99
2023-09-17T11:59:56.827Z,27.00
2023-09-17T12:02:24.830Z,27.03
2023-09-17T12:04:53.466Z,27.05
2023-09-17T12:07:21.682Z,27.06
2023-09-17T12:10:08.048Z,27.09
2023-09-17T12:12:37.916Z,27.10
2023-09-17T12:15:06.432Z,27.12
2023-09-17T12:17:43.918Z,27.16
2023-09-17T12:20:58.115Z,27.15
2023-09-17T12:24:07.694Z,27.17
2023-09-17T12:27:26.324Z,27.19
2023-09-17T12:29:54.868Z,27.20
2023-09-17T12:32:29.204Z,27.24
2023-09-17T12:34:58.012Z,27.30
2023-09-17T12:37:26.878Z,27.33
2023-09-17T12:39:54.394Z,27.35
2023-09-17T12:42:22.481Z,27.38
2023-09-17T12:44:51.069Z,27.41
